sensor_id;sensor_type;location;lat;lon;timestamp;pressure;altitude;pressure_sealevel;temperature;humidity
46087;BME280;31824;49.648;8.640;2023-08-12T00:00:28;100491.16;;;21.56;100.00
46087;BME280;31824;49.648;8.640;2023-08-12T00:03:29;100493.34;;;21.64;100.00
46087;BME280;31824;49.648;8.640;2023-08-12T00:06:33;100500.47;;;21.48;100.00
46087;BME280;31824;49.648;8.640;2023-08-12T00:09:34;100490.38;;;21.42;100.00
46087;BME280;31824;49.648;8.640;2023-08-12T00:12:37;100490.81;;;21.34;100.00
46087;BME280;31824;49.648;8.640;2023-08-12T00:15:39;100482.13;;;21.38;100.00
46087;BME280;31824;49.648;8.640;2023-08-12T00:18:42;100479.88;;;21.29;100.00
46087;BME280;31824;49.648;8.640;2023-08-12T00:21:46;100474.28;;;21.24;100.00
46087;BME280;31824;49.648;8.640;2023-08-12T00:24:49;100467.78;;;21.19;100.00
46087;BME280;31824;49.648;8.640;2023-08-12T00:27:50;100466.59;;;21.14;100.00
46087;BME280;31824;49.648;8.640;2023-08-12T00:30:52;100463.84;;;21.13;100.00
46087;BME280;31824;49.648;8.640;2023-08-12T00:33:54;100466.38;;;21.10;100.00
46087;BME280;31824;49.648;8.640;2023-08-12T00:36:57;100452.91;;;20.91;100.00
46087;BME280;31824;49.648;8.640;2023-08-12T00:40:00;100453.50;;;21.02;100.00
46087;BME280;31824;49.648;8.640;2023-08-12T00:43:02;100448.25;;;21.04;100.00
46087;BME280;31824;49.648;8.640;2023-08-12T00:46:05;100438.41;;;21.03;100.00
46087;BME280;31824;49.648;8.640;2023-08-12T00:49:07;100436.88;;;20.91;100.00
46087;BME280;31824;49.648;8.640;2023-08-12T00:52:10;100436.72;;;20.88;100.00
46087;BME280;31824;49.648;8.640;2023-08-12T00:55:12;100423.81;;;20.96;100.00
46087;BME280;31824;49.648;8.640;2023-08-12T00:58:33;100416.03;;;21.01;100.00
46087;BME280;31824;49.648;8.640;2023-08-12T01:01:35;100418.88;;;21.04;100.00
46087;BME280;31824;49.648;8.640;2023-08-12T01:04:39;100414.19;;;21.16;100.00
46087;BME280;31824;49.648;8.640;2023-08-12T01:07:43;100405.22;;;21.32;100.00
46087;BME280;31824;49.648;8.640;2023-08-12T01:10:49;100411.06;;;21.76;100.00
46087;BME280;31824;49.648;8.640;2023-08-12T01:13:58;100404.63;;;21.90;100.00
46087;BME280;31824;49.648;8.640;2023-08-12T01:17:06;100414.59;;;22.67;100.00
46087;BME280;31824;49.648;8.640;2023-08-12T01:20:11;100416.72;;;22.36;100.00
46087;BME280;31824;49.648;8.640;2023-08-12T01:23:18;100416.28;;;22.09;100.00
46087;BME280;31824;49.648;8.640;2023-08-12T01:26:21;100407.56;;;21.95;100.00
46087;BME280;31824;49.648;8.640;2023-08-12T01:29:23;100414.88;;;21.81;100.00
46087;BME280;31824;49.648;8.640;2023-08-12T01:32:30;100418.91;;;21.73;100.00
46087;BME280;31824;49.648;8.640;2023-08-12T01:35:39;100429.16;;;21.64;100.00
46087;BME280;31824;49.648;8.640;2023-08-12T01:38:44;100424.94;;;21.69;100.00
46087;BME280;31824;49.648;8.640;2023-08-12T01:41:49;100427.25;;;21.61;100.00
46087;BME280;31824;49.648;8.640;2023-08-12T01:44:51;100433.09;;;21.54;100.00
46087;BME280;31824;49.648;8.640;2023-08-12T01:47:54;100440.44;;;21.41;100.00
46087;BME280;31824;49.648;8.640;2023-08-12T01:50:56;100433.66;;;21.48;100.00
46087;BME280;31824;49.648;8.640;2023-08-12T01:53:59;100428.91;;;21.42;100.00
46087;BME280;31824;49.648;8.640;2023-08-12T01:57:01;100444.81;;;21.39;100.00
46087;BME280;31824;49.648;8.640;2023-08-12T02:00:05;100440.88;;;21.33;100.00
46087;BME280;31824;49.648;8.640;2023-08-12T02:03:17;100438.88;;;21.29;100.00
46087;BME280;31824;49.648;8.640;2023-08-12T02:06:19;100441.41;;;20.92;100.00
46087;BME280;31824;49.648;8.640;2023-08-12T02:09:22;100442.06;;;20.88;100.00
46087;BME280;31824;49.648;8.640;2023-08-12T02:12:24;100448.06;;;21.01;100.00
46087;BME280;31824;49.648;8.640;2023-08-12T02:15:26;100448.66;;;20.95;100.00
46087;BME280;31824;49.648;8.640;2023-08-12T02:18:28;100438.22;;;20.83;100.00
46087;BME280;31824;49.648;8.640;2023-08-12T02:21:30;100435.53;;;20.83;100.00
46087;BME280;31824;49.648;8.640;2023-08-12T02:24:35;100437.75;;;20.90;100.00
46087;BME280;31824;49.648;8.640;2023-08-12T02:27:37;100432.72;;;20.97;100.00
46087;BME280;31824;49.648;8.640;2023-08-12T02:30:41;100434.72;;;20.84;100.00
46087;BME280;31824;49.648;8.640;2023-08-12T02:33:43;100446.50;;;20.88;100.00
46087;BME280;31824;49.648;8.640;2023-08-12T02:36:45;100455.84;;;20.80;100.00
46087;BME280;31824;49.648;8.640;2023-08-12T02:39:49;100457.84;;;20.84;100.00
46087;BME280;31824;49.648;8.640;2023-08-12T02:42:50;100466.44;;;20.78;100.00
46087;BME280;31824;49.648;8.640;2023-08-12T02:45:53;100465.13;;;20.86;100.00
46087;BME280;31824;49.648;8.640;2023-08-12T02:48:54;100473.44;;;20.92;100.00
46087;BME280;31824;49.648;8.640;2023-08-12T02:51:56;100484.41;;;20.66;100.00
46087;BME280;31824;49.648;8.640;2023-08-12T02:54:59;100503.91;;;20.80;100.00
46087;BME280;31824;49.648;8.640;2023-08-12T02:58:01;100510.47;;;20.70;100.00
46087;BME280;31824;49.648;8.640;2023-08-12T03:01:03;100512.22;;;20.54;100.00
46087;BME280;31824;49.648;8.640;2023-08-12T03:04:06;100510.69;;;20.43;100.00
46087;BME280;31824;49.648;8.640;2023-08-12T03:07:08;100503.34;;;20.39;100.00
46087;BME280;31824;49.648;8.640;2023-08-12T03:10:12;100508.69;;;20.39;100.00
46087;BME280;31824;49.648;8.640;2023-08-12T03:13:14;100499.75;;;20.38;100.00
46087;BME280;31824;49.648;8.640;2023-08-12T03:16:16;100493.63;;;20.56;100.00
46087;BME280;31824;49.648;8.640;2023-08-12T03:19:20;100485.91;;;20.61;100.00
46087;BME280;31824;49.648;8.640;2023-08-12T03:22:22;100496.28;;;20.71;100.00
46087;BME280;31824;49.648;8.640;2023-08-12T03:25:25;100485.00;;;20.77;100.00
46087;BME280;31824;49.648;8.640;2023-08-12T03:28:27;100492.34;;;20.96;100.00
46087;BME280;31824;49.648;8.640;2023-08-12T03:31:29;100492.66;;;21.02;100.00
46087;BME280;31824;49.648;8.640;2023-08-12T03:34:31;100493.00;;;21.08;100.00
46087;BME280;31824;49.648;8.640;2023-08-12T03:37:33;100494.00;;;21.10;100.00
46087;BME280;31824;49.648;8.640;2023-08-12T03:40:39;100489.41;;;21.07;100.00
46087;BME280;31824;49.648;8.640;2023-08-12T03:43:42;100485.00;;;21.08;100.00
46087;BME280;31824;49.648;8.640;2023-08-12T03:46:45;100469.94;;;21.10;100.00
46087;BME280;31824;49.648;8.640;2023-08-12T03:49:47;100468.09;;;21.09;100.00
46087;BME280;31824;49.648;8.640;2023-08-12T03:52:49;100453.84;;;20.92;100.00
46087;BME280;31824;49.648;8.640;2023-08-12T03:55:53;100456.91;;;20.83;100.00
46087;BME280;31824;49.648;8.640;2023-08-12T03:58:55;100456.50;;;20.76;100.00
46087;BME280;31824;49.648;8.640;2023-08-12T04:01:57;100458.09;;;20.88;100.00
46087;BME280;31824;49.648;8.640;2023-08-12T04:04:59;100451.84;;;20.88;100.00
46087;BME280;31824;49.648;8.640;2023-08-12T04:08:00;100451.09;;;20.90;100.00
46087;BME280;31824;49.648;8.640;2023-08-12T04:11:04;100443.66;;;20.85;100.00
46087;BME280;31824;49.648;8.640;2023-08-12T04:14:06;100445.25;;;20.81;100.00
46087;BME280;31824;49.648;8.640;2023-08-12T04:17:08;100439.75;;;20.78;100.00
46087;BME280;31824;49.648;8.640;2023-08-12T04:20:11;100441.59;;;20.64;100.00
46087;BME280;31824;49.648;8.640;2023-08-12T04:23:13;100446.28;;;20.68;100.00
46087;BME280;31824;49.648;8.640;2023-08-12T04:26:16;100445.63;;;20.72;100.00
46087;BME280;31824;49.648;8.640;2023-08-12T04:29:18;100442.97;;;20.72;100.00
46087;BME280;31824;49.648;8.640;2023-08-12T04:32:21;100429.53;;;20.87;100.00
46087;BME280;31824;49.648;8.640;2023-08-12T04:35:24;100439.00;;;20.81;100.00
46087;BME280;31824;49.648;8.640;2023-08-12T04:38:26;100434.88;;;20.87;100.00
46087;BME280;31824;49.648;8.640;2023-08-12T04:41:31;100434.28;;;20.77;100.00
46087;BME280;31824;49.648;8.640;2023-08-12T04:44:36;100438.88;;;20.79;100.00
46087;BME280;31824;49.648;8.640;2023-08-12T04:47:38;100431.28;;;20.70;100.00
46087;BME280;31824;49.648;8.640;2023-08-12T04:50:41;100435.09;;;20.59;100.00
46087;BME280;31824;49.648;8.640;2023-08-12T04:53:43;100434.66;;;20.51;100.00
46087;BME280;31824;49.648;8.640;2023-08-12T04:56:46;100434.25;;;20.60;100.00
46087;BME280;31824;49.648;8.640;2023-08-12T04:59:48;100431.81;;;20.48;100.00
46087;BME280;31824;49.648;8.640;2023-08-12T05:02:51;100432.56;;;20.46;100.00
46087;BME280;31824;49.648;8.640;2023-08-12T05:05:52;100414.88;;;20.48;100.00
46087;BME280;31824;49.648;8.640;2023-08-12T05:08:58;100424.06;;;20.53;100.00
46087;BME280;31824;49.648;8.640;2023-08-12T05:12:03;100415.41;;;20.57;100.00
46087;BME280;31824;49.648;8.640;2023-08-12T05:15:06;100415.38;;;20.40;100.00
46087;BME280;31824;49.648;8.640;2023-08-12T05:18:08;100419.16;;;20.44;100.00
46087;BME280;31824;49.648;8.640;2023-08-12T05:21:10;100421.53;;;20.39;100.00
46087;BME280;31824;49.648;8.640;2023-08-12T05:24:12;100421.94;;;20.31;100.00
46087;BME280;31824;49.648;8.640;2023-08-12T05:27:15;100417.38;;;20.45;100.00
46087;BME280;31824;49.648;8.640;2023-08-12T05:30:17;100418.03;;;20.40;100.00
46087;BME280;31824;49.648;8.640;2023-08-12T05:33:18;100421.53;;;20.39;100.00
46087;BME280;31824;49.648;8.640;2023-08-12T05:36:20;100417.97;;;20.39;100.00
46087;BME280;31824;49.648;8.640;2023-08-12T05:39:22;100417.75;;;20.51;100.00
46087;BME280;31824;49.648;8.640;2023-08-12T05:42:25;100410.97;;;20.57;100.00
46087;BME280;31824;49.648;8.640;2023-08-12T05:45:27;100414.16;;;20.67;100.00
46087;BME280;31824;49.648;8.640;2023-08-12T05:48:29;100416.50;;;20.61;100.00
46087;BME280;31824;49.648;8.640;2023-08-12T05:51:31;100411.91;;;20.58;100.00
46087;BME280;31824;49.648;8.640;2023-08-12T05:54:32;100416.69;;;20.80;100.00
46087;BME280;31824;49.648;8.640;2023-08-12T05:57:35;100421.13;;;20.80;100.00
46087;BME280;31824;49.648;8.640;2023-08-12T06:00:37;100417.72;;;20.82;100.00
46087;BME280;31824;49.648;8.640;2023-08-12T06:03:39;100410.84;;;20.87;100.00
46087;BME280;31824;49.648;8.640;2023-08-12T06:06:41;100408.88;;;21.00;100.00
46087;BME280;31824;49.648;8.640;2023-08-12T06:09:43;100417.78;;;20.84;100.00
46087;BME280;31824;49.648;8.640;2023-08-12T06:12:46;100427.38;;;20.80;100.00
46087;BME280;31824;49.648;8.640;2023-08-12T06:15:48;100431.00;;;20.81;100.00
46087;BME280;31824;49.648;8.640;2023-08-12T06:18:50;100424.72;;;20.80;100.00
46087;BME280;31824;49.648;8.640;2023-08-12T06:21:52;100424.47;;;20.92;100.00
46087;BME280;31824;49.648;8.640;2023-08-12T06:24:54;100415.03;;;21.15;100.00
46087;BME280;31824;49.648;8.640;2023-08-12T06:27:57;100403.19;;;21.45;100.00
46087;BME280;31824;49.648;8.640;2023-08-12T06:31:00;100403.47;;;21.67;100.00
46087;BME280;31824;49.648;8.640;2023-08-12T06:34:01;100399.59;;;21.97;100.00
46087;BME280;31824;49.648;8.640;2023-08-12T06:37:03;100401.78;;;22.23;100.00
46087;BME280;31824;49.648;8.640;2023-08-12T06:40:06;100408.22;;;22.45;100.00
46087;BME280;31824;49.648;8.640;2023-08-12T06:43:09;100414.06;;;22.56;100.00
46087;BME280;31824;49.648;8.640;2023-08-12T06:46:12;100415.72;;;22.72;100.00
46087;BME280;31824;49.648;8.640;2023-08-12T06:49:15;100421.66;;;22.84;100.00
46087;BME280;31824;49.648;8.640;2023-08-12T06:52:17;100425.75;;;22.76;100.00
46087;BME280;31824;49.648;8.640;2023-08-12T06:55:19;100438.69;;;22.67;100.00
46087;BME280;31824;49.648;8.640;2023-08-12T06:58:22;100445.69;;;22.63;100.00
46087;BME280;31824;49.648;8.640;2023-08-12T07:01:24;100448.19;;;22.60;100.00
46087;BME280;31824;49.648;8.640;2023-08-12T07:04:26;100442.69;;;22.57;100.00
46087;BME280;31824;49.648;8.640;2023-08-12T07:07:28;100444.59;;;22.59;100.00
46087;BME280;31824;49.648;8.640;2023-08-12T07:10:30;100444.69;;;22.61;100.00
46087;BME280;31824;49.648;8.640;2023-08-12T07:13:33;100446.44;;;22.61;100.00
46087;BME280;31824;49.648;8.640;2023-08-12T07:16:35;100438.69;;;22.67;100.00
46087;BME280;31824;49.648;8.640;2023-08-12T07:19:36;100444.50;;;22.76;100.00
46087;BME280;31824;49.648;8.640;2023-08-12T07:22:38;100443.22;;;22.87;100.00
46087;BME280;31824;49.648;8.640;2023-08-12T07:25:40;100434.06;;;22.82;100.00
46087;BME280;31824;49.648;8.640;2023-08-12T07:28:43;100434.28;;;22.67;100.00
46087;BME280;31824;49.648;8.640;2023-08-12T07:31:45;100452.25;;;22.70;100.00
46087;BME280;31824;49.648;8.640;2023-08-12T07:34:47;100445.50;;;22.78;100.00
46087;BME280;31824;49.648;8.640;2023-08-12T07:37:49;100447.75;;;22.88;100.00
46087;BME280;31824;49.648;8.640;2023-08-12T07:40:50;100450.97;;;22.81;100.00
46087;BME280;31824;49.648;8.640;2023-08-12T07:43:54;100465.22;;;22.80;100.00
46087;BME280;31824;49.648;8.640;2023-08-12T07:46:56;100459.03;;;22.81;100.00
46087;BME280;31824;49.648;8.640;2023-08-12T07:49:58;100443.22;;;22.68;100.00
46087;BME280;31824;49.648;8.640;2023-08-12T07:53:00;100446.66;;;22.65;100.00
46087;BME280;31824;49.648;8.640;2023-08-12T07:56:03;100438.56;;;22.64;100.00
46087;BME280;31824;49.648;8.640;2023-08-12T07:59:06;100433.50;;;22.70;100.00
46087;BME280;31824;49.648;8.640;2023-08-12T08:02:08;100431.91;;;22.93;100.00
46087;BME280;31824;49.648;8.640;2023-08-12T08:05:10;100434.00;;;23.00;100.00
46087;BME280;31824;49.648;8.640;2023-08-12T08:08:12;100427.69;;;23.18;100.00
46087;BME280;31824;49.648;8.640;2023-08-12T08:11:14;100425.56;;;23.10;100.00
46087;BME280;31824;49.648;8.640;2023-08-12T08:14:17;100442.06;;;23.20;100.00
46087;BME280;31824;49.648;8.640;2023-08-12T08:17:18;100437.63;;;23.20;100.00
46087;BME280;31824;49.648;8.640;2023-08-12T08:20:20;100439.22;;;23.36;100.00
46087;BME280;31824;49.648;8.640;2023-08-12T08:23:22;100426.94;;;23.41;100.00
46087;BME280;31824;49.648;8.640;2023-08-12T08:26:24;100425.38;;;23.47;100.00
46087;BME280;31824;49.648;8.640;2023-08-12T08:29:28;100435.28;;;23.69;100.00
46087;BME280;31824;49.648;8.640;2023-08-12T08:32:30;100439.91;;;23.73;100.00
46087;BME280;31824;49.648;8.640;2023-08-12T08:35:32;100430.34;;;23.99;100.00
46087;BME280;31824;49.648;8.640;2023-08-12T08:38:34;100441.53;;;24.10;100.00
46087;BME280;31824;49.648;8.640;2023-08-12T08:41:38;100449.66;;;24.12;100.00
46087;BME280;31824;49.648;8.640;2023-08-12T08:44:42;100445.56;;;24.00;100.00
46087;BME280;31824;49.648;8.640;2023-08-12T08:47:44;100442.81;;;24.20;100.00
46087;BME280;31824;49.648;8.640;2023-08-12T08:50:48;100443.22;;;24.29;100.00
46087;BME280;31824;49.648;8.640;2023-08-12T08:53:54;100433.09;;;24.23;100.00
46087;BME280;31824;49.648;8.640;2023-08-12T08:56:58;100435.88;;;24.48;100.00
46087;BME280;31824;49.648;8.640;2023-08-12T09:00:13;100435.00;;;24.70;100.00
46087;BME280;31824;49.648;8.640;2023-08-12T09:03:19;100437.03;;;25.00;100.00
46087;BME280;31824;49.648;8.640;2023-08-12T09:06:22;100429.38;;;24.64;100.00
46087;BME280;31824;49.648;8.640;2023-08-12T09:09:26;100423.22;;;24.66;100.00
46087;BME280;31824;49.648;8.640;2023-08-12T09:12:29;100430.78;;;24.76;100.00
46087;BME280;31824;49.648;8.640;2023-08-12T09:15:32;100417.97;;;24.93;100.00
46087;BME280;31824;49.648;8.640;2023-08-12T09:18:34;100412.25;;;24.84;100.00
46087;BME280;31824;49.648;8.640;2023-08-12T09:21:36;100399.31;;;24.98;100.00
46087;BME280;31824;49.648;8.640;2023-08-12T09:24:38;100407.97;;;25.14;100.00
46087;BME280;31824;49.648;8.640;2023-08-12T09:27:40;100418.13;;;25.22;100.00
46087;BME280;31824;49.648;8.640;2023-08-12T09:30:49;100423.47;;;25.21;100.00
46087;BME280;31824;49.648;8.640;2023-08-12T09:33:52;100401.50;;;24.84;100.00
46087;BME280;31824;49.648;8.640;2023-08-12T09:36:54;100420.44;;;25.11;100.00
46087;BME280;31824;49.648;8.640;2023-08-12T09:39:56;100407.81;;;25.33;100.00
46087;BME280;31824;49.648;8.640;2023-08-12T09:42:59;100402.19;;;25.27;100.00
46087;BME280;31824;49.648;8.640;2023-08-12T09:46:03;100405.88;;;25.55;100.00
46087;BME280;31824;49.648;8.640;2023-08-12T09:49:06;100407.88;;;25.60;100.00
46087;BME280;31824;49.648;8.640;2023-08-12T09:52:09;100413.56;;;25.70;100.00
46087;BME280;31824;49.648;8.640;2023-08-12T09:55:16;100399.94;;;25.91;100.00
46087;BME280;31824;49.648;8.640;2023-08-12T09:58:21;100407.16;;;26.19;100.00
46087;BME280;31824;49.648;8.640;2023-08-12T10:01:26;100413.28;;;26.14;100.00
46087;BME280;31824;49.648;8.640;2023-08-12T10:04:35;100413.63;;;26.24;100.00
46087;BME280;31824;49.648;8.640;2023-08-12T10:07:39;100416.94;;;26.16;100.00
46087;BME280;31824;49.648;8.640;2023-08-12T10:10:41;100420.34;;;26.10;100.00
46087;BME280;31824;49.648;8.640;2023-08-12T10:13:46;100423.91;;;26.09;100.00
46087;BME280;31824;49.648;8.640;2023-08-12T10:16:50;100425.88;;;26.15;100.00
46087;BME280;31824;49.648;8.640;2023-08-12T10:20:00;100431.63;;;26.00;100.00
46087;BME280;31824;49.648;8.640;2023-08-12T10:23:04;100427.50;;;25.84;100.00
46087;BME280;31824;49.648;8.640;2023-08-12T10:26:08;100439.97;;;25.80;100.00
46087;BME280;31824;49.648;8.640;2023-08-12T10:29:10;100451.47;;;25.76;100.00
46087;BME280;31824;49.648;8.640;2023-08-12T10:32:14;100441.63;;;25.76;100.00
46087;BME280;31824;49.648;8.640;2023-08-12T10:35:16;100435.16;;;25.71;100.00
46087;BME280;31824;49.648;8.640;2023-08-12T10:38:19;100435.84;;;25.66;100.00
46087;BME280;31824;49.648;8.640;2023-08-12T10:41:23;100428.06;;;25.73;100.00
46087;BME280;31824;49.648;8.640;2023-08-12T10:44:26;100428.91;;;25.72;100.00
46087;BME280;31824;49.648;8.640;2023-08-12T10:47:30;100424.63;;;25.77;100.00
46087;BME280;31824;49.648;8.640;2023-08-12T10:50:32;100424.44;;;25.73;100.00
46087;BME280;31824;49.648;8.640;2023-08-12T10:53:34;100424.56;;;25.50;100.00
46087;BME280;31824;49.648;8.640;2023-08-12T10:57:04;100418.66;;;25.36;100.00
46087;BME280;31824;49.648;8.640;2023-08-12T11:00:14;100409.69;;;25.11;100.00
46087;BME280;31824;49.648;8.640;2023-08-12T11:03:18;100404.94;;;25.04;100.00
46087;BME280;31824;49.648;8.640;2023-08-12T11:06:20;100423.22;;;24.66;100.00
46087;BME280;31824;49.648;8.640;2023-08-12T11:09:22;100436.69;;;24.68;100.00
46087;BME280;31824;49.648;8.640;2023-08-12T11:12:29;100469.22;;;24.53;100.00
46087;BME280;31824;49.648;8.640;2023-08-12T11:15:32;100488.91;;;24.53;100.00
46087;BME280;31824;49.648;8.640;2023-08-12T11:18:36;100526.03;;;22.11;100.00
46087;BME280;31824;49.648;8.640;2023-08-12T11:21:39;100518.53;;;21.19;100.00
46087;BME280;31824;49.648;8.640;2023-08-12T11:24:41;100524.47;;;20.97;100.00
46087;BME280;31824;49.648;8.640;2023-08-12T11:27:45;100519.88;;;20.95;100.00
46087;BME280;31824;49.648;8.640;2023-08-12T11:30:47;100556.84;;;20.72;100.00
46087;BME280;31824;49.648;8.640;2023-08-12T11:33:50;100567.63;;;20.58;100.00
46087;BME280;31824;49.648;8.640;2023-08-12T11:36:54;100528.16;;;20.53;100.00
46087;BME280;31824;49.648;8.640;2023-08-12T11:39:56;100527.28;;;20.37;100.00
46087;BME280;31824;49.648;8.640;2023-08-12T11:42:57;100517.56;;;20.54;100.00
46087;BME280;31824;49.648;8.640;2023-08-12T11:45:59;100548.84;;;20.57;100.00
46087;BME280;31824;49.648;8.640;2023-08-12T11:49:03;100580.44;;;20.49;100.00
46087;BME280;31824;49.648;8.640;2023-08-12T11:52:09;100511.44;;;20.40;100.00
46087;BME280;31824;49.648;8.640;2023-08-12T11:55:12;100453.91;;;20.46;100.00
46087;BME280;31824;49.648;8.640;2023-08-12T11:58:15;100459.06;;;20.42;100.00
46087;BME280;31824;49.648;8.640;2023-08-12T12:01:21;100443.91;;;20.41;100.00
46087;BME280;31824;49.648;8.640;2023-08-12T12:04:24;100437.41;;;20.53;100.00
46087;BME280;31824;49.648;8.640;2023-08-12T12:07:26;100447.09;;;20.51;100.00
46087;BME280;31824;49.648;8.640;2023-08-12T12:10:30;100454.38;;;20.38;100.00
46087;BME280;31824;49.648;8.640;2023-08-12T12:13:35;100471.28;;;20.54;100.00
46087;BME280;31824;49.648;8.640;2023-08-12T12:16:38;100480.69;;;20.47;100.00
46087;BME280;31824;49.648;8.640;2023-08-12T12:19:43;100478.69;;;20.43;100.00
46087;BME280;31824;49.648;8.640;2023-08-12T12:22:45;100472.47;;;20.59;100.00
46087;BME280;31824;49.648;8.640;2023-08-12T12:25:48;100461.25;;;20.81;100.00
46087;BME280;31824;49.648;8.640;2023-08-12T12:28:50;100447.69;;;20.93;100.00
46087;BME280;31824;49.648;8.640;2023-08-12T12:31:51;100441.47;;;20.94;100.00
46087;BME280;31824;49.648;8.640;2023-08-12T12:34:55;100450.41;;;21.11;100.00
46087;BME280;31824;49.648;8.640;2023-08-12T12:37:56;100448.38;;;21.40;100.00
46087;BME280;31824;49.648;8.640;2023-08-12T12:40:58;100458.03;;;21.71;100.00
46087;BME280;31824;49.648;8.640;2023-08-12T12:44:01;100469.63;;;22.06;100.00
46087;BME280;31824;49.648;8.640;2023-08-12T12:47:03;100481.25;;;22.06;100.00
46087;BME280;31824;49.648;8.640;2023-08-12T12:50:08;100492.91;;;22.08;100.00
46087;BME280;31824;49.648;8.640;2023-08-12T12:53:09;100485.00;;;22.10;100.00
46087;BME280;31824;49.648;8.640;2023-08-12T12:56:11;100474.44;;;21.95;100.00
46087;BME280;31824;49.648;8.640;2023-08-12T12:59:13;100468.75;;;21.89;100.00
46087;BME280;31824;49.648;8.640;2023-08-12T13:02:16;100470.94;;;22.14;100.00
46087;BME280;31824;49.648;8.640;2023-08-12T13:05:19;100470.59;;;21.90;100.00
46087;BME280;31824;49.648;8.640;2023-08-12T13:08:21;100461.75;;;21.91;100.00
46087;BME280;31824;49.648;8.640;2023-08-12T13:11:26;100463.91;;;22.34;100.00
46087;BME280;31824;49.648;8.640;2023-08-12T13:14:28;100476.44;;;22.35;100.00
46087;BME280;31824;49.648;8.640;2023-08-12T13:17:31;100485.63;;;22.40;100.00
46087;BME280;31824;49.648;8.640;2023-08-12T13:20:35;100476.22;;;22.13;100.00
46087;BME280;31824;49.648;8.640;2023-08-12T13:23:37;100496.53;;;22.27;100.00
46087;BME280;31824;49.648;8.640;2023-08-12T13:26:39;100502.72;;;22.08;100.00
46087;BME280;31824;49.648;8.640;2023-08-12T13:29:41;100499.28;;;22.29;100.00
46087;BME280;31824;49.648;8.640;2023-08-12T13:32:43;100477.72;;;22.25;100.00
46087;BME280;31824;49.648;8.640;2023-08-12T13:35:46;100466.91;;;22.40;100.00
46087;BME280;31824;49.648;8.640;2023-08-12T13:38:48;100464.63;;;22.68;100.00
46087;BME280;31824;49.648;8.640;2023-08-12T13:41:50;100459.66;;;22.57;100.00
46087;BME280;31824;49.648;8.640;2023-08-12T13:44:51;100450.72;;;22.95;100.00
46087;BME280;31824;49.648;8.640;2023-08-12T13:47:53;100456.41;;;23.20;100.00
46087;BME280;31824;49.648;8.640;2023-08-12T13:50:56;100443.19;;;23.25;100.00
46087;BME280;31824;49.648;8.640;2023-08-12T13:54:02;100435.78;;;23.19;100.00
46087;BME280;31824;49.648;8.640;2023-08-12T13:57:04;100446.81;;;23.25;100.00
46087;BME280;31824;49.648;8.640;2023-08-12T14:00:06;100449.97;;;23.17;100.00
46087;BME280;31824;49.648;8.640;2023-08-12T14:03:16;100455.41;;;23.18;100.00
46087;BME280;31824;49.648;8.640;2023-08-12T14:06:19;100451.13;;;23.63;100.00
46087;BME280;31824;49.648;8.640;2023-08-12T14:09:21;100437.84;;;23.87;100.00
46087;BME280;31824;49.648;8.640;2023-08-12T14:12:23;100422.13;;;23.96;100.00
46087;BME280;31824;49.648;8.640;2023-08-12T14:15:24;100419.22;;;24.34;100.00
46087;BME280;31824;49.648;8.640;2023-08-12T14:18:26;100423.09;;;24.87;100.00
46087;BME280;31824;49.648;8.640;2023-08-12T14:21:29;100414.72;;;24.78;100.00
46087;BME280;31824;49.648;8.640;2023-08-12T14:24:31;100411.13;;;24.55;100.00
46087;BME280;31824;49.648;8.640;2023-08-12T14:27:33;100407.97;;;24.89;100.00
46087;BME280;31824;49.648;8.640;2023-08-12T14:30:36;100395.00;;;24.55;100.00
46087;BME280;31824;49.648;8.640;2023-08-12T14:33:38;100391.69;;;24.39;100.00
46087;BME280;31824;49.648;8.640;2023-08-12T14:36:41;100394.94;;;24.31;100.00
46087;BME280;31824;49.648;8.640;2023-08-12T14:39:43;100392.00;;;24.24;100.00
46087;BME280;31824;49.648;8.640;2023-08-12T14:42:45;100388.41;;;24.24;100.00
46087;BME280;31824;49.648;8.640;2023-08-12T14:45:47;100379.41;;;24.23;100.00
46087;BME280;31824;49.648;8.640;2023-08-12T14:48:49;100393.81;;;24.25;100.00
46087;BME280;31824;49.648;8.640;2023-08-12T14:51:54;100389.19;;;24.21;100.00
46087;BME280;31824;49.648;8.640;2023-08-12T14:54:56;100376.97;;;24.30;100.00
46087;BME280;31824;49.648;8.640;2023-08-12T14:57:58;100363.97;;;24.40;100.00
46087;BME280;31824;49.648;8.640;2023-08-12T15:00:59;100363.06;;;24.63;100.00
46087;BME280;31824;49.648;8.640;2023-08-12T15:04:03;100377.59;;;24.68;100.00
46087;BME280;31824;49.648;8.640;2023-08-12T15:07:06;100380.44;;;24.72;100.00
46087;BME280;31824;49.648;8.640;2023-08-12T15:10:09;100382.47;;;24.78;100.00
46087;BME280;31824;49.648;8.640;2023-08-12T15:13:11;100386.13;;;24.80;100.00
46087;BME280;31824;49.648;8.640;2023-08-12T15:16:12;100389.78;;;24.82;100.00
46087;BME280;31824;49.648;8.640;2023-08-12T15:19:14;100393.50;;;24.86;100.00
46087;BME280;31824;49.648;8.640;2023-08-12T15:22:17;100384.47;;;24.84;100.00
46087;BME280;31824;49.648;8.640;2023-08-12T15:25:19;100407.66;;;24.82;100.00
46087;BME280;31824;49.648;8.640;2023-08-12T15:28:21;100399.34;;;24.74;100.00
46087;BME280;31824;49.648;8.640;2023-08-12T15:31:23;100405.56;;;24.73;100.00
46087;BME280;31824;49.648;8.640;2023-08-12T15:34:24;100400.94;;;24.69;100.00
46087;BME280;31824;49.648;8.640;2023-08-12T15:37:28;100411.91;;;24.75;100.00
46087;BME280;31824;49.648;8.640;2023-08-12T15:40:30;100415.03;;;24.63;100.00
46087;BME280;31824;49.648;8.640;2023-08-12T15:43:32;100410.75;;;24.68;100.00